Aeroporto :
LOGIN :

Iscrizione | Disclaimer

   EN    FR    IT 

 










Sommario :    VFR   VFR Marginale   IFR   IFR Intensivo   IFR Molto Intensivo
Visibilità : 
Base nubi : 
>= 8 km
>= 3000ft
5 / 8 km
1000 / 3000 ft
1500m / 5 km
500 / 1000 ft
800 / 1500m
200 / 500 ft
< 800m
< 200 ft
Simboli :   Temporali  Nebbia  Neve Forte  Precipitazioni Forti  Vento > 20 kt
SIGMETs :   Varie  Temporali  Ghiacco  Turbolenza  Onda orograficha  Ceneri Vulcaniche






- Altitudine del aeroporto : 19 ft
- Codice IATA : BEB


EGPL - Benbecula

ULTIMO METAR :
  • 090950Z AUTO 32008KT 9999 NCD 14/09 Q1016

METARs OBSOLETI :
  • 090920Z AUTO 33007KT 9999 NCD 14/08 Q1016
  • 090850Z AUTO 36007KT 9999 OVC047/// 13/09 Q1015
  • 090820Z AUTO 02005KT 9999 OVC043/// 12/09 Q1015
  • 090750Z 01008KT 9999 -SHRA SCT019 BKN048 11/09 Q1015
  • 090720Z 29005KT 9999 VCSH SCT023 BKN048 13/09 Q1015

TAF TAF EGPL
Valido dal 09 a 09 ore il 09 a 18 ore UTC


090804Z 0909/0918 32009KT 9999 FEW020 SCT040
PROB30
TEMPO 0909/0912 8000 -SHRA
ATIS : +44 1870 604 818



MetMap, La meteo Aeronautica in un colpo d'occhio ! - Copyright ORBIFLY Dicembre 2007 - Disclaimer

ORBIFLY MET'MAP TEAM :

Programmazione e sviluppo : Alexandra Zaïnal
Concezione : Baudouin d'Aumeries
Aiuto per la programmazione : Marc-Olivier Méhu
Supporto tecnico e logistico : Manuel Goepfert
Aiuto per la traduzione : Arnaldo La Scala

Contatto : metmap@orbifly.com




FONTI E CREDITI :

   NOAA